Chandler, OK

5:00 AM CDT on October 02, 2014 (GMT -0500)
Chandler Municipal | Change Station
CLOSE
Current Station
Airport
Location: Chandler,
Elevation: 984 ft
Nearby Weather Stations

Elev 984 ft 35.72 °N, 96.82 °W | Updated 5 minutes ago

Overcast
Overcast
73 °F
Feels Like 73 °F
N
12
Wind Variable Wind from South
Gusts 17 mph

Today
High -- | Low -- °F
--% Chance of Precip.
Yesterday
High -- | Low -- °F
Precip. -- in
7:23 AM 7:09 PM
First Quarter, 57% visible
Pressure 29.73 in
Visibility 10.0 miles
Clouds Scattered Clouds 6000 ft
Scattered Clouds 9500 ft
Overcast 12000 ft
Dew Point 72 °F
Humidity 94%
Rainfall 0.00 in
Snow Depth Not available.
UV 0 out of 12
Pollen 9.60 out of 12
Air Quality Not available.
Flu Activity Not available.
METAR KCQB 020955Z AUTO 18010G15KT 10SM SCT060 SCT095 OVC120 23/22 A2973 RMK AO2

More Conditions Fewer Conditions

Pressure 29.73 in
Visibility 10.0 miles
Clouds Scattered Clouds 6000 ft
Scattered Clouds 9500 ft
Overcast 12000 ft
Dew Point 72 °F
Humidity 94%
Rainfall 0.00 in
Snow Depth Not available.
UV 0 out of 12
Pollen 9.60 out of 12
Air Quality Not available.
Flu Activity Not available.
METAR KCQB 020955Z AUTO 18010G15KT 10SM SCT060 SCT095 OVC120 23/22 A2973 RMK AO2

More Conditions Fewer Conditions

10-Day Weather Forecast

Almanac

Astronomy

Oct. 02, 2014 Rise Set
Actual Time 7:23 AM CDT 7:09 PM CDT
Civil Twilight 6:57 AM CDT 7:35 PM CDT
Nautical Twilight 6:28 AM CDT 8:04 PM CDT
Astronomical Twilight 5:58 AM CDT 8:34 PM CDT
Moon 3:06 PM CDT 12:52 AM CDT
Length of Visible Light 12h 37m
Length of Day
11h 46m
Tomorrow will be 2m 13s shorter.
First Quarter, 57% of the Moon is Illuminated
Today
First Quarter
Oct 8
Full
Oct 15
Last Quarter
Oct 23
New
Oct 30
First Quarter

Today's Extremes

State Highs State Lows

Community

WunderPhotos

Upload Photos

1,758,209 photos uploaded!

WunderBlogs® & News

By Dr. Jeff Masters
Director of Meteorology, Weather Underground
By Kari Strenfel
Meteorologist, Weather Underground
By Christopher C. Burt
Weather Historian, Weather Underground
October 2, 2014
October 2, 2014
October 2, 2014

Nearby

Snow Depth

Station Depth Elevation
No new snow has been reported.

Earthquake Activity

City Distance Mag. Time & Date
Perry, Oklahoma 38 miles 2.6 8:20 PM CDT
2014-10-01
Guthrie, Oklahoma 31 miles 3.0 5:15 PM CDT
2014-10-01
Perry, Oklahoma 49 miles 2.8 4:17 PM CDT
2014-10-01
Medford, Oklahoma 95 miles 3.6 1:18 PM CDT
2014-10-01
Minimum magnitude displayed is 2.5.

Coastal Water Temperatures

Place Temperature
No Stations Reporting

Nearby Weather Stations